Time;durP1;ratioP1;P1;durP2;ratioP2;P2;SDS_P1;SDS_P2;PMS_P1;PMS_P2;Temp;Humidity;BMP_temperature;BMP_pressure;BME280_temperature;BME280_humidity;BME280_pressure;Samples;Min_cycle;Max_cycle;Signal;HPM_P1;HPM_P2
2023/09/06 04:02:49;;;;;;;3.00;2.47;;;18.00;73.40;;;;;;4898479;29;20472;-74
2023/09/06 04:05:15;;;;;;;2.83;2.53;;;17.90;73.80;;;;;;4899467;29;20458;-74
2023/09/06 04:07:43;;;;;;;2.90;2.60;;;17.90;73.80;;;;;;4899384;29;20457;-74
2023/09/06 04:10:16;;;;;;;3.07;2.57;;;17.80;73.50;;;;;;4899069;29;20951;-74
2023/09/06 04:12:43;;;;;;;2.53;2.03;;;17.70;73.90;;;;;;4899302;29;20480;-73
2023/09/06 04:15:13;;;;;;;3.00;2.43;;;17.70;74.30;;;;;;4899887;29;20442;-73
2023/09/06 04:17:40;;;;;;;3.20;2.60;;;17.70;74.20;;;;;;4899310;29;20445;-74
2023/09/06 04:20:19;;;;;;;3.33;2.60;;;17.70;74.20;;;;;;4899141;29;20486;-74
2023/09/06 04:22:47;;;;;;;2.93;2.37;;;17.70;74.30;;;;;;4899185;29;20490;-74
2023/09/06 04:25:18;;;;;;;3.17;2.47;;;17.60;74.40;;;;;;4899095;29;20453;-74
2023/09/06 04:27:45;;;;;;;2.87;2.27;;;17.70;74.30;;;;;;4899108;29;20469;-74
2023/09/06 04:30:15;;;;;;;2.70;2.30;;;17.70;74.30;;;;;;4898934;29;20499;-74
2023/09/06 04:32:44;;;;;;;2.93;2.40;;;17.70;74.10;;;;;;4898557;29;20462;-72
2023/09/06 04:35:15;;;;;;;2.47;2.20;;;17.70;74.00;;;;;;4898407;29;20901;-73
2023/09/06 04:37:41;;;;;;;2.20;1.80;;;17.70;74.10;;;;;;4899097;29;20437;-74
2023/09/06 04:40:13;;;;;;;2.60;2.37;;;17.70;74.20;;;;;;4899023;29;20824;-74
2023/09/06 04:42:40;;;;;;;3.50;2.57;;;17.70;74.10;;;;;;4899058;29;20462;-74
2023/09/06 04:45:09;;;;;;;3.47;2.50;;;17.70;74.10;;;;;;4898517;29;20452;-74
2023/09/06 04:47:36;;;;;;;4.37;2.63;;;17.70;74.10;;;;;;4898845;29;20457;-74
2023/09/06 04:50:04;;;;;;;2.90;2.37;;;17.50;74.60;;;;;;4898732;29;20946;-73
2023/09/06 04:52:37;;;;;;;2.67;2.17;;;17.50;74.80;;;;;;4898591;29;20525;-74
2023/09/06 04:55:06;;;;;;;3.60;2.70;;;17.50;74.80;;;;;;4898713;29;20465;-74
2023/09/06 04:57:33;;;;;;;2.73;2.30;;;17.50;74.80;;;;;;4898671;29;20467;-74
2023/09/06 05:00:00;;;;;;;4.80;2.83;;;17.50;75.00;;;;;;4898394;29;20457;-74
2023/09/06 05:02:27;;;;;;;4.00;2.40;;;17.30;75.70;;;;;;4898184;29;20572;-74
2023/09/06 05:04:53;;;;;;;3.33;2.73;;;17.40;75.40;;;;;;4898280;29;20810;-74
2023/09/06 05:07:20;;;;;;;2.77;2.30;;;17.40;75.40;;;;;;4898163;29;20862;-74
2023/09/06 05:09:49;;;;;;;2.80;2.37;;;17.50;75.30;;;;;;4898452;29;20806;-74
2023/09/06 05:12:16;;;;;;;2.90;2.30;;;17.40;75.60;;;;;;4898235;29;20538;-74
2023/09/06 05:14:42;;;;;;;2.73;2.43;;;17.50;75.60;;;;;;4898535;29;20461;-72
2023/09/06 05:17:09;;;;;;;2.83;2.53;;;17.60;75.10;;;;;;4898633;29;20473;-74
2023/09/06 05:19:36;;;;;;;6.03;2.57;;;17.70;75.10;;;;;;4898845;29;20453;-74
2023/09/06 05:22:02;;;;;;;6.40;3.57;;;17.90;74.80;;;;;;4898767;29;20465;-74
2023/09/06 05:24:29;;;;;;;10.33;4.20;;;18.00;74.50;;;;;;4898862;29;20453;-74
2023/09/06 05:26:57;;;;;;;20.37;5.33;;;18.10;74.10;;;;;;4898830;29;20505;-74
2023/09/06 05:29:24;;;;;;;10.67;3.30;;;18.20;74.30;;;;;;4899013;29;20457;-75
2023/09/06 05:31:50;;;;;;;8.43;3.80;;;18.30;74.20;;;;;;4898420;29;20492;-74
2023/09/06 05:34:17;;;;;;;4.40;3.30;;;18.40;74.00;;;;;;4899108;29;20477;-75
2023/09/06 05:36:44;;;;;;;3.70;2.47;;;18.60;73.80;;;;;;4898969;29;20452;-74
2023/09/06 05:39:12;;;;;;;3.50;2.57;;;18.70;73.40;;;;;;4898804;29;20458;-74
2023/09/06 05:41:39;;;;;;;3.00;2.60;;;18.80;72.90;;;;;;4898913;29;20974;-74
2023/09/06 05:44:08;;;;;;;3.80;2.60;;;19.00;72.80;;;;;;4898939;29;20457;-74
2023/09/06 05:46:34;;;;;;;2.80;2.33;;;19.10;72.50;;;;;;4903252;29;20544;-73
2023/09/06 05:49:01;;;;;;;4.33;2.53;;;19.30;72.30;;;;;;4905267;29;20829;-74
2023/09/06 05:51:28;;;;;;;2.80;2.10;;;19.50;72.30;;;;;;4904140;29;20493;-74
2023/09/06 05:53:54;;;;;;;3.10;2.27;;;19.70;71.80;;;;;;4904670;29;20465;-73
2023/09/06 05:56:21;;;;;;;3.10;2.40;;;20.00;71.30;;;;;;4904567;29;20459;-74
2023/09/06 05:58:48;;;;;;;2.70;2.00;;;20.60;70.70;;;;;;4904917;29;20821;-74
2023/09/06 06:01:17;;;;;;;2.30;1.70;;;21.60;68.70;;;;;;4904108;29;20858;-74
2023/09/06 06:03:44;;;;;;;2.43;2.20;;;22.80;65.80;;;;;;4904576;29;20454;-74
2023/09/06 06:06:14;;;;;;;3.20;2.03;;;24.00;62.90;;;;;;4904494;29;20453;-75
2023/09/06 06:08:42;;;;;;;3.47;2.10;;;25.10;59.70;;;;;;4904816;29;20513;-74
2023/09/06 06:11:09;;;;;;;2.80;2.17;;;26.00;57.40;;;;;;4904400;29;20587;-74
2023/09/06 06:13:37;;;;;;;2.67;2.10;;;26.50;56.00;;;;;;4905092;29;20488;-74
2023/09/06 06:16:06;;;;;;;2.50;1.93;;;27.20;54.90;;;;;;4904514;29;20457;-75
2023/09/06 06:18:35;;;;;;;3.60;2.07;;;27.70;53.60;;;;;;4905761;29;20462;-75
2023/09/06 06:21:03;;;;;;;2.30;1.97;;;28.50;52.90;;;;;;4905739;29;20477;-76
2023/09/06 06:23:30;;;;;;;2.83;2.53;;;28.80;51.00;;;;;;4905116;29;20461;-75
2023/09/06 06:25:57;;;;;;;2.80;1.83;;;28.90;50.90;;;;;;4905130;29;20484;-75
2023/09/06 06:28:24;;;;;;;3.17;2.40;;;29.00;50.30;;;;;;4903685;29;20449;-75
2023/09/06 06:30:51;;;;;;;2.67;1.97;;;29.20;49.30;;;;;;4903532;29;20480;-74
2023/09/06 06:33:17;;;;;;;2.70;1.77;;;29.50;48.80;;;;;;4902575;29;20544;-76
2023/09/06 06:35:45;;;;;;;2.40;2.07;;;29.00;48.90;;;;;;4901944;29;20445;-76
2023/09/06 06:38:12;;;;;;;3.20;2.23;;;28.30;49.70;;;;;;4902430;29;20829;-75
2023/09/06 06:40:39;;;;;;;3.17;2.50;;;27.30;51.80;;;;;;4902985;29;20445;-75
2023/09/06 06:43:06;;;;;;;3.53;2.60;;;27.10;52.30;;;;;;4902910;29;20453;-74
2023/09/06 06:45:33;;;;;;;2.70;2.50;;;27.10;52.60;;;;;;4902396;29;20976;-75
2023/09/06 06:48:00;;;;;;;2.80;2.17;;;27.70;52.30;;;;;;4902847;29;20947;-74
2023/09/06 06:50:27;;;;;;;2.77;2.47;;;28.00;52.20;;;;;;4902655;29;20473;-76
2023/09/06 06:52:55;;;;;;;3.47;2.10;;;28.20;51.90;;;;;;4902688;29;20843;-75
2023/09/06 06:55:21;;;;;;;2.40;1.97;;;29.00;50.70;;;;;;4903698;29;20476;-75
2023/09/06 06:57:48;;;;;;;2.10;1.80;;;30.00;49.60;;;;;;4904258;29;20480;-75
2023/09/06 07:00:17;;;;;;;2.30;2.10;;;30.00;48.30;;;;;;4903804;29;20484;-76
2023/09/06 07:02:45;;;;;;;3.07;1.80;;;29.60;48.70;;;;;;4904508;29;20521;-76
2023/09/06 07:05:12;;;;;;;2.00;1.63;;;28.70;50.30;;;;;;4903947;29;20451;-76
2023/09/06 07:07:39;;;;;;;2.30;2.00;;;28.10;51.70;;;;;;4902852;29;20482;-76
2023/09/06 07:10:08;;;;;;;2.90;2.43;;;27.00;54.30;;;;;;4902071;29;20457;-75
2023/09/06 07:12:36;;;;;;;2.50;2.07;;;26.90;54.20;;;;;;4903180;29;20999;-74
2023/09/06 07:15:02;;;;;;;2.50;2.13;;;25.90;56.00;;;;;;4903947;29;20488;-74
2023/09/06 07:17:29;;;;;;;2.87;2.40;;;25.50;57.30;;;;;;4903599;29;20450;-75
2023/09/06 07:19:56;;;;;;;3.63;2.30;;;25.30;57.00;;;;;;4902570;29;20457;-75
2023/09/06 07:22:22;;;;;;;2.90;2.23;;;24.80;58.00;;;;;;4900383;29;20477;-74
2023/09/06 07:24:49;;;;;;;4.03;2.53;;;24.60;59.20;;;;;;4901308;29;20465;-76
2023/09/06 07:27:17;;;;;;;2.50;2.23;;;24.10;59.90;;;;;;4902165;29;20867;-75
2023/09/06 07:29:44;;;;;;;3.20;2.20;;;24.10;61.00;;;;;;4900882;29;20445;-74
2023/09/06 07:32:10;;;;;;;2.80;2.27;;;23.70;61.20;;;;;;4899601;29;20485;-75
2023/09/06 07:34:37;;;;;;;3.00;2.70;;;23.80;61.30;;;;;;4899614;29;20943;-75
2023/09/06 07:37:04;;;;;;;2.87;2.37;;;23.60;61.80;;;;;;4899790;29;20453;-74
2023/09/06 07:39:31;;;;;;;2.57;2.30;;;23.10;63.20;;;;;;4899819;29;20449;-75
2023/09/06 07:41:58;;;;;;;3.53;2.23;;;23.00;62.80;;;;;;4899645;29;20466;-75
2023/09/06 07:44:29;;;;;;;2.77;1.93;;;23.00;63.80;;;;;;4899697;29;20450;-74
2023/09/06 07:46:56;;;;;;;2.97;2.27;;;23.40;63.30;;;;;;4900204;29;20493;-74
2023/09/06 07:49:23;;;;;;;4.10;2.63;;;23.50;62.30;;;;;;4899721;29;20450;-75
2023/09/06 07:51:50;;;;;;;3.43;2.50;;;23.60;62.10;;;;;;4899188;29;20937;-74
2023/09/06 07:54:16;;;;;;;2.83;2.23;;;23.60;62.70;;;;;;4900239;29;20537;-74
2023/09/06 07:56:47;;;;;;;3.53;2.13;;;23.60;62.80;;;;;;4899592;29;20577;-73
2023/09/06 07:59:14;;;;;;;3.10;2.23;;;23.30;64.20;;;;;;4899503;29;20438;-74
2023/09/06 08:01:43;;;;;;;2.93;2.40;;;23.70;63.20;;;;;;4899139;29;20489;-74
2023/09/06 08:04:10;;;;;;;2.43;2.00;;;23.70;64.10;;;;;;4899293;29;20462;-74
2023/09/06 08:06:39;;;;;;;2.60;1.97;;;23.60;63.50;;;;;;4899299;29;20835;-76
2023/09/06 08:09:06;;;;;;;3.33;1.97;;;23.90;63.80;;;;;;4898077;29;20457;-74
2023/09/06 08:11:32;;;;;;;3.07;2.40;;;24.00;63.80;;;;;;4899128;29;20886;-74
2023/09/06 08:13:59;;;;;;;3.13;2.47;;;24.30;62.40;;;;;;4899324;29;20450;-74
2023/09/06 08:16:26;;;;;;;2.43;1.80;;;24.10;60.00;;;;;;4899161;29;20450;-75
2023/09/06 08:18:55;;;;;;;2.60;2.40;;;24.20;62.00;;;;;;4899095;29;20453;-75
2023/09/06 08:21:22;;;;;;;2.40;2.20;;;24.20;60.70;;;;;;4899311;29;20482;-73
2023/09/06 08:23:48;;;;;;;2.50;2.10;;;24.30;60.90;;;;;;4899976;29;20450;-75
2023/09/06 08:26:15;;;;;;;3.13;2.20;;;24.00;60.80;;;;;;4898966;29;21030;-75
2023/09/06 08:28:42;;;;;;;3.43;2.20;;;23.70;62.00;;;;;;4898949;29;20809;-75
2023/09/06 08:31:11;;;;;;;2.67;1.90;;;23.90;62.00;;;;;;4898888;29;20469;-74
2023/09/06 08:33:38;;;;;;;2.47;1.77;;;24.20;61.20;;;;;;4898815;29;20496;-74
2023/09/06 08:36:07;;;;;;;2.40;1.73;;;24.60;61.10;;;;;;4898946;29;20457;-74
2023/09/06 08:38:34;;;;;;;3.33;2.70;;;24.80;60.80;;;;;;4898618;29;20932;-74
2023/09/06 08:41:01;;;;;;;5.93;2.20;;;25.10;60.50;;;;;;4898672;29;20529;-74
2023/09/06 08:43:34;;;;;;;3.50;2.00;;;25.30;61.10;;;;;;4898750;29;20452;-75
2023/09/06 08:46:03;;;;;;;2.80;2.50;;;25.10;61.70;;;;;;4898524;29;20899;-72
2023/09/06 08:48:30;;;;;;;2.77;2.10;;;25.10;62.30;;;;;;4898983;29;20457;-74
2023/09/06 08:50:58;;;;;;;4.20;2.70;;;25.30;61.00;;;;;;4898854;29;20469;-75
2023/09/06 08:53:27;;;;;;;3.30;2.40;;;25.20;63.00;;;;;;4898612;29;20517;-75
2023/09/06 08:55:54;;;;;;;4.50;2.50;;;25.50;63.70;;;;;;4899372;29;20509;-75
2023/09/06 08:58:21;;;;;;;3.40;2.53;;;25.30;62.80;;;;;;4898919;29;20454;-75
2023/09/06 09:00:48;;;;;;;2.83;1.90;;;25.50;60.60;;;;;;4898434;29;20541;-75
2023/09/06 09:03:15;;;;;;;3.23;2.37;;;25.40;61.00;;;;;;4899549;29;20531;-75
2023/09/06 09:05:42;;;;;;;8.47;2.87;;;25.00;62.40;;;;;;4898617;29;20453;-74
2023/09/06 09:08:09;;;;;;;4.57;2.63;;;24.90;62.80;;;;;;4899888;29;20457;-76
2023/09/06 09:10:37;;;;;;;3.57;2.93;;;24.80;63.10;;;;;;4898613;29;20460;-77
2023/09/06 09:13:04;;;;;;;3.13;2.40;;;24.50;64.00;;;;;;4898660;29;20484;-76
2023/09/06 09:15:31;;;;;;;2.77;2.33;;;24.80;63.40;;;;;;4898441;29;20500;-77
2023/09/06 09:17:58;;;;;;;3.13;2.80;;;24.50;62.50;;;;;;4898638;29;20449;-77
2023/09/06 09:20:26;;;;;;;3.40;2.40;;;24.30;63.20;;;;;;4897987;29;20498;-76
2023/09/06 09:22:53;;;;;;;2.80;2.30;;;24.50;65.40;;;;;;4898587;29;20442;-77
2023/09/06 09:25:23;;;;;;;4.33;2.40;;;24.60;64.80;;;;;;4898924;29;20446;-76
2023/09/06 09:27:55;;;;;;;2.63;2.20;;;24.60;65.20;;;;;;4898794;29;20461;-75
2023/09/06 09:30:23;;;;;;;3.00;2.70;;;24.40;62.90;;;;;;4898294;29;20442;-77
2023/09/06 09:32:57;;;;;;;3.43;2.77;;;24.40;62.50;;;;;;4898231;29;20492;-75
2023/09/06 09:35:26;;;;;;;2.90;2.37;;;24.30;64.40;;;;;;4898349;29;20800;-77
2023/09/06 09:37:53;;;;;;;2.50;2.20;;;24.40;62.50;;;;;;4898340;29;20453;-76
2023/09/06 09:40:21;;;;;;;4.03;2.67;;;24.40;62.50;;;;;;4898649;29;20844;-76
2023/09/06 09:42:57;;;;;;;2.60;2.30;;;24.20;63.40;;;;;;4898290;29;20453;-76
2023/09/06 09:45:25;;;;;;;3.70;2.00;;;24.10;63.20;;;;;;4898148;29;20543;-76
2023/09/06 09:47:52;;;;;;;2.40;2.07;;;24.10;64.30;;;;;;4898473;29;20481;-77
2023/09/06 09:50:22;;;;;;;3.53;2.23;;;24.10;63.20;;;;;;4898566;29;20450;-76
2023/09/06 09:52:49;;;;;;;2.93;2.33;;;24.00;64.70;;;;;;4897860;29;20497;-76
2023/09/06 09:55:17;;;;;;;2.80;2.07;;;23.80;65.70;;;;;;4898050;29;20449;-75
2023/09/06 09:57:46;;;;;;;3.37;2.10;;;24.00;64.60;;;;;;4898126;29;20476;-76
2023/09/06 10:00:14;;;;;;;3.23;2.40;;;24.10;64.60;;;;;;4897927;29;20561;-76
2023/09/06 10:02:42;;;;;;;4.03;2.17;;;24.00;64.50;;;;;;4897461;29;20469;-76
2023/09/06 10:05:12;;;;;;;2.70;2.13;;;24.00;65.10;;;;;;4897953;29;20459;-76
2023/09/06 10:07:41;;;;;;;2.63;2.17;;;24.20;65.70;;;;;;4897548;29;20960;-76
2023/09/06 10:10:10;;;;;;;2.80;2.30;;;24.40;64.70;;;;;;4897646;29;20935;-76
2023/09/06 10:12:39;;;;;;;2.83;2.27;;;24.10;64.70;;;;;;4897667;29;20490;-77
2023/09/06 10:15:08;;;;;;;3.37;2.50;;;24.10;65.90;;;;;;4898062;29;20978;-76
2023/09/06 10:17:36;;;;;;;3.10;2.17;;;24.30;64.60;;;;;;4897744;29;20453;-76
2023/09/06 10:20:05;;;;;;;2.40;2.10;;;24.40;64.80;;;;;;4897408;29;20456;-76
2023/09/06 10:22:32;;;;;;;2.53;2.17;;;24.70;63.80;;;;;;4897832;29;20465;-77
2023/09/06 10:25:06;;;;;;;3.13;2.30;;;24.70;62.60;;;;;;4898467;29;20958;-77
2023/09/06 10:27:33;;;;;;;2.37;2.13;;;24.70;62.60;;;;;;4898719;29;20479;-77
2023/09/06 10:30:00;;;;;;;4.70;2.30;;;24.60;63.40;;;;;;4897809;29;20457;-75
2023/09/06 10:32:41;;;;;;;3.20;2.87;;;24.80;63.60;;;;;;4899467;29;20473;-77
2023/09/06 10:35:24;;;;;;;2.80;2.10;;;25.10;63.50;;;;;;4902134;29;20466;-76
2023/09/06 10:38:10;;;;;;;3.50;2.67;;;25.30;64.10;;;;;;4901490;29;20919;-78
2023/09/06 10:41:09;;;;;;;2.80;2.10;;;25.40;62.70;;;;;;4902695;29;20445;-75
2023/09/06 10:44:02;;;;;;;2.90;2.47;;;25.30;63.30;;;;;;4902430;29;20481;-75
2023/09/06 10:46:30;;;;;;;2.70;2.30;;;25.30;63.50;;;;;;4901045;29;20444;-75
2023/09/06 10:49:15;;;;;;;3.40;2.80;;;25.20;63.20;;;;;;4901079;29;20454;-77
2023/09/06 10:52:00;;;;;;;2.80;2.10;;;25.00;63.90;;;;;;4901365;29;20465;-74
2023/09/06 10:54:34;;;;;;;3.00;2.37;;;25.10;63.90;;;;;;4900763;29;20489;-77
2023/09/06 10:57:03;;;;;;;2.53;2.33;;;25.10;64.60;;;;;;4901264;29;20438;-74
2023/09/06 10:59:31;;;;;;;2.43;2.20;;;25.30;63.10;;;;;;4901805;29;20492;-76
2023/09/06 11:02:14;;;;;;;2.80;2.30;;;25.30;63.90;;;;;;4956759;23;20531;-77
2023/09/06 11:04:42;;;;;;;2.70;1.90;;;25.50;63.70;;;;;;4939206;29;20435;-76
2023/09/06 11:07:12;;;;;;;2.70;2.20;;;25.60;63.20;;;;;;4938890;29;20452;-77
2023/09/06 11:09:43;;;;;;;2.40;1.97;;;25.60;62.80;;;;;;4938625;29;20454;-77
2023/09/06 11:12:11;;;;;;;2.90;2.63;;;25.60;63.40;;;;;;4938786;29;20468;-76
2023/09/06 11:14:37;;;;;;;2.50;2.30;;;25.80;63.00;;;;;;4938068;29;21071;-76
2023/09/06 11:17:04;;;;;;;2.57;2.30;;;26.00;64.10;;;;;;4938526;29;20447;-75
2023/09/06 11:19:31;;;;;;;2.70;1.97;;;26.20;61.70;;;;;;4938992;29;20460;-77
2023/09/06 11:22:07;;;;;;;2.27;1.90;;;26.20;62.40;;;;;;4938377;29;20468;-77
2023/09/06 11:24:34;;;;;;;2.83;2.47;;;26.40;62.00;;;;;;4939269;29;20439;-77
2023/09/06 11:27:03;;;;;;;2.23;2.03;;;26.20;61.90;;;;;;4938530;29;20448;-76
2023/09/06 11:29:30;;;;;;;3.93;2.83;;;26.40;63.40;;;;;;4938885;29;20950;-78
2023/09/06 11:32:08;;;;;;;3.20;2.70;;;26.60;61.90;;;;;;4938704;29;20475;-77
2023/09/06 11:34:42;;;;;;;2.77;2.30;;;26.70;62.10;;;;;;4939963;29;20467;-78
2023/09/06 11:37:12;;;;;;;3.07;2.40;;;27.00;62.10;;;;;;4938205;29;20488;-76
2023/09/06 11:39:40;;;;;;;3.30;2.23;;;27.00;61.30;;;;;;4940325;29;20463;-78
2023/09/06 11:42:10;;;;;;;2.90;2.60;;;27.10;60.80;;;;;;4941714;29;20471;-78
2023/09/06 11:44:42;;;;;;;2.70;2.27;;;27.40;60.80;;;;;;4941671;29;20491;-78
2023/09/06 11:47:10;;;;;;;3.93;2.27;;;27.50;60.10;;;;;;4939958;29;20476;-78
2023/09/06 11:49:39;;;;;;;2.80;2.20;;;27.70;60.30;;;;;;4940396;29;20455;-78
2023/09/06 11:52:07;;;;;;;2.53;2.03;;;27.80;59.90;;;;;;4941208;29;20504;-78
2023/09/06 11:54:38;;;;;;;2.93;2.13;;;27.80;59.30;;;;;;4939098;29;20494;-78
2023/09/06 11:57:08;;;;;;;2.20;1.90;;;27.60;58.60;;;;;;4939016;29;20436;-77
2023/09/06 11:59:37;;;;;;;2.50;2.03;;;27.80;59.70;;;;;;4938312;29;20953;-79
2023/09/06 12:02:05;;;;;;;2.57;2.07;;;28.00;59.30;;;;;;4938163;29;20860;-78
2023/09/06 12:04:32;;;;;;;2.83;2.10;;;27.90;58.20;;;;;;4939313;29;20976;-78
2023/09/06 12:07:00;;;;;;;2.40;2.17;;;28.00;58.60;;;;;;4939198;29;20466;-77
2023/09/06 12:09:27;;;;;;;2.87;2.40;;;28.10;58.80;;;;;;4937063;29;20976;-77
2023/09/06 12:11:55;;;;;;;3.23;2.40;;;28.40;58.60;;;;;;4939139;29;20479;-77
2023/09/06 12:14:23;;;;;;;2.20;1.80;;;28.70;58.20;;;;;;4938003;29;21044;-78
2023/09/06 12:16:49;;;;;;;2.50;2.03;;;28.70;56.20;;;;;;4937819;29;20451;-77
2023/09/06 12:19:17;;;;;;;2.30;1.93;;;28.90;56.50;;;;;;4938158;29;20480;-76
2023/09/06 12:21:44;;;;;;;2.30;2.00;;;29.00;56.40;;;;;;4938858;29;20479;-77
2023/09/06 12:24:10;;;;;;;5.97;2.20;;;29.00;56.00;;;;;;4938229;29;20476;-76
2023/09/06 12:26:37;;;;;;;2.50;2.03;;;29.10;56.00;;;;;;4937438;29;20829;-77
2023/09/06 12:29:05;;;;;;;2.53;2.33;;;29.10;55.30;;;;;;4937485;29;20861;-77
2023/09/06 12:31:32;;;;;;;4.20;2.37;;;29.00;54.80;;;;;;4937085;29;20479;-77
2023/09/06 12:33:59;;;;;;;2.27;1.93;;;29.10;55.40;;;;;;4937323;29;20511;-77
2023/09/06 12:36:25;;;;;;;2.27;1.70;;;29.50;54.90;;;;;;4937858;29;20489;-76
2023/09/06 12:38:52;;;;;;;2.10;1.83;;;29.50;53.80;;;;;;4937931;29;20448;-76
2023/09/06 12:41:19;;;;;;;2.80;2.50;;;29.60;53.90;;;;;;4936987;29;20999;-76
2023/09/06 12:43:46;;;;;;;2.30;1.87;;;29.40;54.20;;;;;;4937507;29;20440;-77
2023/09/06 12:46:14;;;;;;;3.07;1.80;;;29.40;54.40;;;;;;4937905;29;20448;-77
2023/09/06 12:48:42;;;;;;;2.67;1.87;;;29.60;54.00;;;;;;4937271;29;20806;-76
2023/09/06 12:51:08;;;;;;;3.13;1.90;;;29.80;53.20;;;;;;4938278;29;20472;-76
2023/09/06 12:53:36;;;;;;;3.77;2.40;;;29.90;52.70;;;;;;4937468;29;20487;-78
2023/09/06 12:56:03;;;;;;;2.20;1.83;;;29.90;52.30;;;;;;4942373;29;20451;-78
2023/09/06 12:58:29;;;;;;;2.43;2.23;;;29.90;51.50;;;;;;4942230;29;20447;-77
2023/09/06 13:00:57;;;;;;;3.97;2.10;;;29.90;51.40;;;;;;4939268;29;21051;-77
2023/09/06 13:03:25;;;;;;;2.93;2.30;;;29.90;51.10;;;;;;4938198;29;20925;-78
2023/09/06 13:05:52;;;;;;;4.87;1.80;;;29.90;50.80;;;;;;4938044;29;20455;-76
2023/09/06 13:08:18;;;;;;;2.20;1.97;;;30.00;50.70;;;;;;4936883;29;20455;-76
2023/09/06 13:10:45;;;;;;;2.03;1.70;;;30.00;51.50;;;;;;4936910;29;20475;-76
2023/09/06 13:13:12;;;;;;;3.20;2.20;;;30.30;52.40;;;;;;4936061;29;20505;-77
2023/09/06 13:15:39;;;;;;;2.23;1.93;;;30.30;52.50;;;;;;4936100;29;20456;-77
2023/09/06 13:18:06;;;;;;;2.43;2.17;;;30.30;51.60;;;;;;4935878;29;20798;-77
2023/09/06 13:20:35;;;;;;;2.10;1.60;;;30.30;51.60;;;;;;4936427;29;20450;-77
2023/09/06 13:23:02;;;;;;;2.03;1.77;;;30.20;46.70;;;;;;4936383;29;20475;-77
2023/09/06 13:25:29;;;;;;;2.47;1.87;;;30.50;48.80;;;;;;4936242;29;20461;-75
2023/09/06 13:27:56;;;;;;;2.97;1.80;;;30.90;50.20;;;;;;4935857;29;20862;-78
2023/09/06 13:30:23;;;;;;;3.00;1.60;;;31.10;49.40;;;;;;4935844;29;20448;-78
2023/09/06 13:32:49;;;;;;;2.83;2.10;;;31.00;45.80;;;;;;4935997;29;20444;-77
2023/09/06 13:35:16;;;;;;;2.67;1.83;;;30.90;44.30;;;;;;4937219;29;20491;-73
2023/09/06 13:37:45;;;;;;;2.10;1.50;;;30.40;44.00;;;;;;4936264;29;20447;-76
2023/09/06 13:40:12;;;;;;;2.57;2.07;;;30.20;44.90;;;;;;4935944;29;21024;-77
2023/09/06 13:42:39;;;;;;;2.10;1.73;;;30.10;45.40;;;;;;4936697;29;21007;-77
2023/09/06 13:45:07;;;;;;;2.87;2.03;;;30.30;44.00;;;;;;4937708;29;20876;-77
2023/09/06 13:47:33;;;;;;;2.23;1.73;;;30.20;43.20;;;;;;4939588;29;20459;-78
2023/09/06 13:50:00;;;;;;;2.10;1.77;;;30.40;43.80;;;;;;4936985;29;20766;-77
2023/09/06 13:52:27;;;;;;;1.80;1.40;;;30.50;43.80;;;;;;4930300;23;20523;-77
2023/09/06 13:54:55;;;;;;;2.57;2.13;;;30.70;46.20;;;;;;4919204;29;20492;-78
2023/09/06 13:57:21;;;;;;;2.20;1.60;;;30.60;48.50;;;;;;4917857;29;20456;-78
2023/09/06 13:59:48;;;;;;;2.63;1.80;;;30.90;49.80;;;;;;4921400;29;20453;-78
2023/09/06 14:02:15;;;;;;;2.43;1.83;;;31.20;50.00;;;;;;4921924;29;20472;-76
2023/09/06 14:04:41;;;;;;;2.57;2.10;;;31.60;49.40;;;;;;4919848;29;20444;-78
2023/09/06 14:07:08;;;;;;;3.00;1.77;;;31.70;48.00;;;;;;4930144;29;20449;-78
2023/09/06 14:09:35;;;;;;;2.47;1.50;;;31.70;48.60;;;;;;4924578;29;20453;-77
2023/09/06 14:12:03;;;;;;;2.30;1.53;;;31.90;48.20;;;;;;4920605;29;20483;-77
2023/09/06 14:14:30;;;;;;;2.27;1.77;;;31.80;45.30;;;;;;4921949;29;20485;-77
2023/09/06 14:16:56;;;;;;;2.23;1.80;;;31.40;46.40;;;;;;4921865;29;20661;-78
2023/09/06 14:19:24;;;;;;;2.70;1.70;;;31.50;46.00;;;;;;4921818;29;20461;-77
2023/09/06 14:21:52;;;;;;;2.30;1.70;;;31.70;46.50;;;;;;4921211;29;20931;-78
2023/09/06 14:24:18;;;;;;;4.00;1.97;;;32.10;45.40;;;;;;4920389;29;20818;-77
2023/09/06 14:26:45;;;;;;;2.47;2.03;;;32.40;47.00;;;;;;4922904;29;20449;-79
2023/09/06 14:29:13;;;;;;;2.17;1.87;;;32.90;46.90;;;;;;4925734;29;20452;-78
2023/09/06 14:31:40;;;;;;;2.20;1.70;;;33.70;45.60;;;;;;4924827;29;20464;-79
2023/09/06 14:34:06;;;;;;;2.50;1.80;;;34.30;42.70;;;;;;4927213;29;20491;-78
2023/09/06 14:36:33;;;;;;;2.27;1.70;;;34.90;42.50;;;;;;4921693;29;20452;-78
2023/09/06 14:39:00;;;;;;;2.10;1.60;;;35.60;41.40;;;;;;4923514;29;20455;-78
2023/09/06 14:41:27;;;;;;;2.07;1.70;;;36.60;41.10;;;;;;4924398;29;20997;-77
2023/09/06 14:43:55;;;;;;;2.00;1.53;;;38.10;39.40;;;;;;4921816;29;20812;-77
2023/09/06 14:46:23;;;;;;;1.93;1.73;;;39.20;38.70;;;;;;4922346;29;20459;-78
2023/09/06 14:48:49;;;;;;;2.30;2.10;;;39.70;37.50;;;;;;4921499;29;20216;-79
2023/09/06 14:51:17;;;;;;;3.08;1.80;;;40.30;35.60;;;;;;4919388;29;20246;-77
2023/09/06 14:53:43;;;;;;;2.20;2.00;;;40.30;35.20;;;;;;4919666;29;20204;-76
2023/09/06 14:56:11;;;;;;;2.42;1.60;;;39.10;35.90;;;;;;4924151;29;20692;-77
2023/09/06 14:58:37;;;;;;;2.50;1.60;;;39.40;36.90;;;;;;4927174;29;20212;-76
2023/09/06 15:01:04;;;;;;;2.00;1.70;;;39.20;35.30;;;;;;4919071;29;20235;-76
2023/09/06 15:03:33;;;;;;;3.22;1.75;;;38.70;36.50;;;;;;4919436;29;20585;-77
2023/09/06 15:06:00;;;;;;;2.00;1.70;;;39.40;36.40;;;;;;4920209;29;20235;-76
2023/09/06 15:08:27;;;;;;;3.30;1.93;;;39.30;35.60;;;;;;4921419;29;20697;-76
2023/09/06 15:10:53;;;;;;;1.93;1.73;;;38.10;37.20;;;;;;4919602;29;20487;-78
2023/09/06 15:13:20;;;;;;;1.93;1.73;;;38.10;37.40;;;;;;4925384;29;20483;-77
2023/09/06 15:15:49;;;;;;;3.70;1.87;;;38.00;37.50;;;;;;4924834;29;20495;-77
2023/09/06 15:18:15;;;;;;;2.10;1.87;;;38.40;37.10;;;;;;4918583;29;20480;-77
2023/09/06 15:20:43;;;;;;;3.10;1.77;;;38.10;37.30;;;;;;4924995;29;20476;-77
2023/09/06 15:23:10;;;;;;;2.30;1.70;;;38.10;37.70;;;;;;4924353;29;20448;-78
2023/09/06 15:25:37;;;;;;;2.53;1.60;;;38.10;36.90;;;;;;4922650;29;20678;-80
2023/09/06 15:28:04;;;;;;;2.53;1.40;;;38.10;37.70;;;;;;4921917;29;20444;-79
2023/09/06 15:30:31;;;;;;;3.67;1.67;;;37.40;38.50;;;;;;4920391;29;20455;-79
2023/09/06 15:32:57;;;;;;;2.00;1.60;;;36.10;39.40;;;;;;4921817;29;20455;-78
2023/09/06 15:35:28;;;;;;;2.83;1.80;;;35.00;41.00;;;;;;4922055;29;20535;-79
2023/09/06 15:38:03;;;;;;;3.73;1.50;;;33.90;42.70;;;;;;4920655;29;20504;-77
2023/09/06 15:40:30;;;;;;;2.23;1.67;;;33.30;44.00;;;;;;4922216;29;20915;-80
2023/09/06 15:42:57;;;;;;;2.07;1.60;;;32.50;43.40;;;;;;4921781;29;20958;-80
2023/09/06 15:45:24;;;;;;;2.13;1.57;;;31.90;44.10;;;;;;4921152;29;20460;-77
2023/09/06 15:47:51;;;;;;;2.30;1.50;;;31.30;44.60;;;;;;4920950;29;20473;-78
2023/09/06 15:50:19;;;;;;;1.90;1.43;;;30.70;45.00;;;;;;4920581;29;20448;-78
2023/09/06 15:52:47;;;;;;;2.30;1.70;;;30.40;45.90;;;;;;4919853;29;20487;-77
2023/09/06 15:55:16;;;;;;;2.00;1.60;;;30.00;47.00;;;;;;4919514;29;20492;-79
2023/09/06 15:57:43;;;;;;;2.10;1.73;;;29.80;47.50;;;;;;4919769;29;20460;-76
2023/09/06 16:00:11;;;;;;;2.30;1.70;;;29.60;47.40;;;;;;4919664;29;20445;-79
2023/09/06 16:02:39;;;;;;;2.80;1.40;;;29.40;48.00;;;;;;4919665;29;20504;-79
2023/09/06 16:05:08;;;;;;;3.27;1.47;;;29.20;48.80;;;;;;4918771;29;20441;-77
2023/09/06 16:07:35;;;;;;;3.10;1.70;;;29.00;49.60;;;;;;4919067;29;20965;-78
2023/09/06 16:10:02;;;;;;;2.07;1.23;;;28.90;50.30;;;;;;4919403;29;20460;-76
2023/09/06 16:12:31;;;;;;;2.57;1.50;;;29.00;50.60;;;;;;4919607;29;20480;-78
2023/09/06 16:14:58;;;;;;;3.07;1.50;;;28.90;49.50;;;;;;4918383;29;21092;-78
2023/09/06 16:17:25;;;;;;;2.20;1.70;;;28.90;49.50;;;;;;4942885;23;20496;-70
2023/09/06 16:19:52;;;;;;;2.40;1.70;;;29.00;49.20;;;;;;4918666;29;20452;-71
2023/09/06 16:22:21;;;;;;;2.30;1.60;;;28.70;49.30;;;;;;4917936;29;20448;-69
2023/09/06 16:24:48;;;;;;;2.40;1.60;;;28.80;50.10;;;;;;4917582;29;20460;-71
2023/09/06 16:27:15;;;;;;;2.03;1.70;;;28.70;51.50;;;;;;4917680;29;20469;-69
2023/09/06 16:29:43;;;;;;;2.10;1.50;;;28.70;52.70;;;;;;4916969;29;20472;-71
2023/09/06 16:32:10;;;;;;;2.40;1.63;;;28.70;53.10;;;;;;4917731;29;20453;-70
2023/09/06 16:34:37;;;;;;;3.00;1.77;;;28.80;53.20;;;;;;4917647;29;20491;-71
2023/09/06 16:37:04;;;;;;;2.03;1.50;;;28.80;53.30;;;;;;4917561;29;20468;-70
2023/09/06 16:39:32;;;;;;;2.43;1.70;;;28.90;53.60;;;;;;4917312;29;20942;-70
2023/09/06 16:41:59;;;;;;;2.20;1.70;;;28.90;53.50;;;;;;4917563;29;20491;-70
2023/09/06 16:44:27;;;;;;;2.00;1.60;;;28.90;53.40;;;;;;4917522;29;20456;-70
2023/09/06 16:46:56;;;;;;;2.60;1.53;;;29.00;53.30;;;;;;4917415;29;20468;-71
2023/09/06 16:49:23;;;;;;;1.97;1.47;;;28.90;53.50;;;;;;4917801;29;20441;-70
2023/09/06 16:51:50;;;;;;;2.77;1.40;;;28.90;53.40;;;;;;4917433;29;20453;-70